Terminal Aerodrome Forecast
Issued by NWS

Home | Current Version | Previous Version | Text Only | Print | Product List | Glossary On
Versions: 1 2 3 4 5 6 7 8 9 10 11 12 13 14 15 16 17 18
000
FTUS45 KRIW 230200 AAA
TAFLND
TAF AMD
KLND 230232Z 2303/2324 VRB06KT 2SM -SHSN BKN020
     FM230400 34010KT P6SM VCSH FEW025 SCT060
     FM230700 28008KT P6SM FEW060 SCT100
     FM231800 VRB05KT P6SM FEW100=

USA.gov is the U.S. government's official web portal to all federal, state and local government web resources and services.